Have a Safe July 4th! 

Flight Track Log - Related Links

Times and Time Zones

All times are in EDT time to prevent confusion due to time zone crossing. See the EGF4260 flight status page for this flight to view local times or setup timezone preferences in your user account.

Time Position Orientation Groundspeed Altitude Reporting Facility
EDT Latitude Longitude Course Direction KTS MPH feet Rate Location/Type
Wed 04:40:25 PM 41.9333 -87.9167 173° South 186 214 2,000  Level Chicago TRACON
Wed 04:41:25 PM 41.8667 -87.9000 169° South 225 259 4,100 2,191 Climbing Chicago TRACON
Wed 04:42:00 PM 41.7131 -87.5936 157° South  Level Estimated
Wed 04:42:20 PM 41.8108 -87.8842 168° South 245 282 6,200  Level Chicago Center
Wed 04:43:00 PM 41.6234 -87.4898 156° South  Level Estimated
Wed 04:43:22 PM 41.7481 -87.8272 146° Southeast 261 300 8,400  Level Chicago Center
Wed 04:44:00 PM 41.5336 -87.3863 159° South  Level Estimated
Wed 04:44:24 PM 41.6758 -87.7711 150° Southeast 290 334 10,600  Level Chicago Center
Wed 04:45:00 PM 41.4437 -87.2831 173° South  Level Estimated
Wed 04:45:26 PM 41.5992 -87.7103 149° Southeast 316 364 12,200  Level Chicago Center
Wed 04:46:28 PM 41.5003 -87.6303 149° Southeast 343 395 14,000 1,500 Climbing Chicago Center
Wed 04:47:30 PM 41.4139 -87.5625 150° Southeast 355 409 15,300 1,113 Climbing Chicago Center
Wed 04:48:32 PM 41.3231 -87.4897 149° Southeast 375 432 16,300 960 Climbing Chicago Center
Wed 04:49:35 PM 41.2272 -87.4192 151° Southeast 390 449 17,300 912 Climbing Chicago Center
Wed 04:50:37 PM 41.1294 -87.3442 150° Southeast 405 466 18,200 871 Climbing Chicago Center
Wed 04:51:39 PM 41.0308 -87.2692 150° Southeast 408 470 19,100 1,016 Climbing Chicago Center
Wed 04:52:41 PM 40.9092 -87.1781 150° Southeast 418 481 20,300 1,065 Climbing Chicago Center
Wed 04:53:43 PM 40.8069 -87.1017 151° Southeast 423 487 21,300 968 Climbing Chicago Center
Wed 04:54:45 PM 40.7081 -87.0278 150° Southeast 421 484 22,300 823 Climbing Chicago Center
Wed 04:55:47 PM 40.6033 -86.9494 150° Southeast 427 491 23,000 339 Climbing Chicago Center
Wed 04:56:49 PM 40.4961 -86.8692 150° Southeast 440 506 23,000  Level Chicago Center
Wed 04:57:51 PM 40.3678 -86.7747 151° Southeast 450 518 23,000  Level Chicago Center
Wed 04:58:53 PM 40.2556 -86.6911 150° Southeast 458 527 23,000  Level Chicago Center
Wed 04:59:55 PM 40.1436 -86.6086 151° Southeast 459 528 23,000  Level Chicago Center
Wed 05:00:43 PM 40.0517 -86.5400 150° Southeast 453 521 23,000 -220 Level Indianapolis Center
Wed 05:01:44 PM 39.9400 -86.4589 151° Southeast 455 524 22,600 -927 Descending Indianapolis Center
Wed 05:02:46 PM 39.8322 -86.3778 150° Southeast 448 516 21,100 -1,729 Descending Indianapolis Center
Wed 05:03:42 PM 39.7667 -86.2333 121° Southeast 477 549 19,200 -1,810 Descending Indianapolis TRACON
Wed 05:04:42 PM 39.7167 -86.0833 113° Southeast 464 534 17,600 -1,700 Descending Indianapolis TRACON
Wed 05:05:42 PM 39.6667 -85.9500 116° Southeast 426 490 15,800 -1,750 Descending Indianapolis TRACON
Wed 05:06:42 PM 39.6333 -85.8000 106° East 407 468 14,100 -1,669 Descending Indianapolis TRACON
Wed 05:07:55 PM 39.5756 -85.6578 118° Southeast 395 455 12,100 -1,422 Descending Indianapolis Center
Wed 05:08:57 PM 39.5325 -85.5289 113° Southeast 389 448 10,900 -585 Descending Indianapolis Center
Wed 05:09:58 PM 39.4736 -85.4050 122° Southeast 399 459 10,900 49 Level Indianapolis Center
Wed 05:11:00 PM 39.4081 -85.2875 126° Southeast 403 464 11,000 48 Climbing Indianapolis Center
Wed 05:12:02 PM 39.3311 -85.1486 126° Southeast 404 465 11,000 48 Level Indianapolis Center
Wed 05:13:04 PM 39.2683 -85.0325 125° Southeast 395 455 11,100 -195 Climbing Indianapolis Center
Wed 05:14:05 PM 39.2075 -84.9222 125° Southeast 380 437 10,600 -730 Descending Indianapolis Center
Wed 05:14:59 PM 39.1667 -84.8333 121° Southeast 301 346 9,700 -789 Descending Cincinnati TRACON
Wed 05:15:59 PM 39.1500 -84.7333 102° East 292 336 9,100 -500 Descending Cincinnati TRACON
Wed 05:16:59 PM 39.1500 -84.6333 90° East 269 310 8,700 -950 Descending Cincinnati TRACON
Wed 05:17:59 PM 39.1500 -84.5333 90° East 273 314 7,200 -1,550 Descending Cincinnati TRACON
Wed 05:18:59 PM 39.1500 -84.4333 90° East 270 311 5,600 -1,520 Descending Cincinnati TRACON
Wed 05:19:14 PM 39.1319 -84.4206 151° Southeast 267 307 5,300 -885 Descending Indianapolis Center
Wed 05:20:00 PM 39.0833 -84.4000 162° South 223 257 4,700 -906 Descending Cincinnati TRACON
Wed 05:21:00 PM 39.0500 -84.4333 218° Southwest 169 194 3,700 -600 Descending Cincinnati TRACON
Wed 05:22:00 PM 39.0500 -84.4833 270° West 153 176 3,500 -200 Descending Cincinnati TRACON

Login

Don't have an account? Register now (free) for customized features, flight alerts, and more!